White Bird, Idaho
Current Conditions -  °F | °C
As of 11:55 AM on Saturday 25 Oct 2014 (Local Time) from KGIC Reporting Station
Clear Clear  
Wind Chill: 46°   Ceiling: Unl
Heat Index: 49°   Visibility: 10mi
Dew Point: 46°   Wind: 7mph
Humidity: 87%   Direction: 90°E
Pressure: 29.75"   Gusts: NA
Location:  45.76°N, 116.3°W
Report Text: KGIC 251855Z AUTO 09006KT 10SM CLR 10/08 A2975 RMK AO1 T00950075
Loading
Personal Weather Stations






























Interactive Weather Map
Tropical Storm Tracking
New forecast layout! Learn more

10-Day Weather Forecast

Advertisements
Track Severe Weather on mobile